WetterOnline ( https://www.wetteronline.de )

Wetter aktuell Dünwald

Aktuelles Wetter: Leinefelde (356m)

6-stündlich | Neueste Meldungen
Ortszeit Temperatur Wetter
Sa, 25.05. 2:00 12.7° C Nebel
Fr, 24.05. 20:00 14.6° C wolkig
Fr, 24.05. 14:00 19.1° C bewölkt
Fr, 24.05. 8:00 14.4° C bedeckt
Fr, 24.05. 2:00 13.1° C wolkenlos
Do, 23.05. 20:00 18.1° C fast wolkenlos
Do, 23.05. 14:00 18.8° C leicht bewölkt
Do, 23.05. 8:00 13.2° C wolkenlos
Ortszeit Temperatur Wetter
Sa, 25.05. 3:00 12.6° C Nebel
Sa, 25.05. 2:50 12.6° C Nebel
Sa, 25.05. 2:40 12.6° C Nebel
Sa, 25.05. 2:30 12.6° C Nebel
Sa, 25.05. 2:20 12.6° C Nebel
Sa, 25.05. 2:10 12.6° C Nebel
Sa, 25.05. 2:00 12.7° C Nebel
Sa, 25.05. 1:30 13.0° C Nebel
Sa, 25.05. 1:00 12.7° C bewölkt
Sa, 25.05. 0:30 13.0° C bewölkt
Sa, 25.05. 0:00 13.2° C bewölkt
Ortszeit Relative Feuchte Sichtweite
Sa, 25.05. 2:00 100% 0.2 km
Fr, 24.05. 20:00 93% 25 km
Fr, 24.05. 14:00 65% 50 km
Fr, 24.05. 8:00 78% 30 km
Fr, 24.05. 2:00 87% 35 km
Do, 23.05. 20:00 65% 50 km
Do, 23.05. 14:00 54% 40 km
Do, 23.05. 8:00 83% 30 km
Ortszeit Relative Feuchte Sichtweite
Sa, 25.05. 3:00 100% 100 m
Sa, 25.05. 2:50 100% -
Sa, 25.05. 2:40 100% -
Sa, 25.05. 2:30 100% 100 m
Sa, 25.05. 2:20 100% -
Sa, 25.05. 2:10 100% -
Sa, 25.05. 2:00 100% 0.2 km
Sa, 25.05. 1:30 100% 2.4 km
Sa, 25.05. 1:00 100% 1.4 km
Sa, 25.05. 0:30 99% 6 km
Sa, 25.05. 0:00 99% 5.0 km
Ortszeit Niederschlagsmenge Niederschlagsart
Sa, 25.05. 2:00 0.4 l/m2 in 6 Std. Regen
Fr, 24.05. 20:00 2 l/m2 in 12 Std. Regen
Fr, 24.05. 14:00 0.1 l/m2 in 6 Std. Regen
Fr, 24.05. 8:00 0.0 l/m2 in 12 Std. -
Fr, 24.05. 2:00 0.0 l/m2 in 6 Std. -
Do, 23.05. 20:00 0.0 l/m2 in 12 Std. -
Do, 23.05. 14:00 0.0 l/m2 in 6 Std. -
Do, 23.05. 8:00 0.0 l/m2 in 12 Std. -
Ortszeit Niederschlagsmenge Niederschlagsart
Sa, 25.05. 3:00 0.0 l/m2 in 1 Std. -
Sa, 25.05. 2:50 keine Meldung -
Sa, 25.05. 2:40 keine Meldung -
Sa, 25.05. 2:30 0.0 l/m2 in 30 Min -
Sa, 25.05. 2:20 keine Meldung -
Sa, 25.05. 2:10 keine Meldung -
Sa, 25.05. 2:00 0.0 l/m2 in 1 Std. Regen
Sa, 25.05. 1:30 0.0 l/m2 in 30 Min -
Sa, 25.05. 1:00 0.0 l/m2 in 1 Std. -
Sa, 25.05. 0:30 0.0 l/m2 in 30 Min -
Sa, 25.05. 0:00 0.0 l/m2 in 1 Std. -
Ortszeit Stärke Spitze Richtung
km/h Bft. km/h Grad Sektor
Sa, 25.05. 2:00 6 1 15 20° N
Fr, 24.05. 20:00 7 2 26 340° N
Fr, 24.05. 14:00 11 2 29 70° O
Fr, 24.05. 8:00 0 0 11 - -
Fr, 24.05. 2:00 2 1 13 70° O
Do, 23.05. 20:00 6 1 28 340° N
Do, 23.05. 14:00 9 2 24 250° W
Do, 23.05. 8:00 9 2 17 240° SW
Ortszeit Stärke Spitze Richtung
km/h Bft. km/h Grad Sektor
Sa, 25.05. 3:00 2 1 9 200° S
Sa, 25.05. 2:50 2 1 - 200° S
Sa, 25.05. 2:40 4 1 - 200° S
Sa, 25.05. 2:30 4 1 7 220° SW
Sa, 25.05. 2:20 4 1 - 220° SW
Sa, 25.05. 2:10 4 1 - 190° S
Sa, 25.05. 2:00 6 1 7 20° N
Sa, 25.05. 1:30 4 1 7 30° NO
Sa, 25.05. 1:00 4 1 7 70° O
Sa, 25.05. 0:30 4 1 7 250° W
Sa, 25.05. 0:00 6 1 11 230° SW
Ortszeit Untergrenze Bedeckung Gattung
total tief tief mittel hoch
Sa, 25.05. 2:00 <30 m 8/8 0/8 - - -
Fr, 24.05. 20:00 2100 m 6/8 5/8 - - -
Fr, 24.05. 14:00 1170 m 8/8 7/8 - - -
Fr, 24.05. 8:00 1380 m 8/8 8/8 - - -
Fr, 24.05. 2:00 - 0/8 0/8 - - -
Do, 23.05. 20:00 9000 m 1/8 0/8 - - -
Do, 23.05. 14:00 1500 m 4/8 3/8 - - -
Do, 23.05. 8:00 - 0/8 0/8 - - -
Ortszeit Bedeckungsgrad in Achtel und Wolkenuntergrenze
Sa, 25.05. 3:00 8(<30m) 8(870m)
Sa, 25.05. 2:50 8(<30m) 8(870m)
Sa, 25.05. 2:40 8
Sa, 25.05. 2:30 8(<30m)
Sa, 25.05. 2:20 8(<30m)
Sa, 25.05. 2:10 8
Sa, 25.05. 2:00 7(<30m) 8(2700m)
Sa, 25.05. 1:30 7(90m) 8(2400m)
Sa, 25.05. 1:00 1(<30m) 7(1500m) 7(2400m)
Sa, 25.05. 0:30 6(1800m) 7(2700m)
Sa, 25.05. 0:00 7(2700m)
Ortszeit Luftdruck NN (hPa) Tendenz (hPa in 3 Std.)
Sa, 25.05. 2:00 1017 - 0,4
Fr, 24.05. 20:00 1017 - 0,8
Fr, 24.05. 14:00 1016 - 0,8
Fr, 24.05. 8:00 1018 + 0,2
Fr, 24.05. 2:00 1018 + 0,1
Do, 23.05. 20:00 1015 + 0,6
Do, 23.05. 14:00 1015 - 0,1
Do, 23.05. 8:00 1015 + 1,4
Ortszeit Luftdruck NN (hPa) Tendenz (hPa in 3 Std.)
Sa, 25.05. 3:00 1017 - 0,3
Sa, 25.05. 2:50 1017 keine Meldung
Sa, 25.05. 2:40 1017 keine Meldung
Sa, 25.05. 2:30 1017 - 0,1
Sa, 25.05. 2:20 1017 keine Meldung
Sa, 25.05. 2:10 1017 keine Meldung
Sa, 25.05. 2:00 1017 - 0,4
Sa, 25.05. 1:30 1017 - 0,1
Sa, 25.05. 1:00 1018 + 0,2
Sa, 25.05. 0:30 1018 + 0,4
Sa, 25.05. 0:00 1017 + 0,2
Ortszeit Schneehöhe (cm)
Sa, 25.05. 2:00 0
Fr, 24.05. 20:00 0
Fr, 24.05. 14:00 0
Fr, 24.05. 8:00 0
Fr, 24.05. 2:00 0
Do, 23.05. 20:00 0
Do, 23.05. 14:00 0
Do, 23.05. 8:00 0
Ortszeit Schneehöhe (cm)
Sa, 25.05. 3:00 0
Sa, 25.05. 2:50 0
Sa, 25.05. 2:40 -
Sa, 25.05. 2:30 0
Sa, 25.05. 2:20 0
Sa, 25.05. 2:10 -
Sa, 25.05. 2:00 0
Sa, 25.05. 1:30 0
Sa, 25.05. 1:00 0
Sa, 25.05. 0:30 0
Sa, 25.05. 0:00 0
Link zu dieser Seite / Seite empfehlen

Das Wetter in ...